sensor_id;sensor_type;location;lat;lon;timestamp;pressure;altitude;pressure_sealevel;temperature
73685;BMP280;61985;51.070;14.064;2023-08-21T05:33:28;99279.50;;;21.45
73685;BMP280;61985;51.070;14.064;2023-08-21T05:35:53;99288.94;;;21.44
73685;BMP280;61985;51.070;14.064;2023-08-21T05:38:19;99276.38;;;21.64
73685;BMP280;61985;51.070;14.064;2023-08-21T05:40:44;99278.66;;;21.76
73685;BMP280;61985;51.070;14.064;2023-08-21T05:43:10;99283.22;;;21.91
73685;BMP280;61985;51.070;14.064;2023-08-21T05:45:35;99281.53;;;22.05
73685;BMP280;61985;51.070;14.064;2023-08-21T05:48:00;99289.09;;;22.15
73685;BMP280;61985;51.070;14.064;2023-08-21T05:50:26;99287.63;;;22.26
73685;BMP280;61985;51.070;14.064;2023-08-21T05:52:51;99291.63;;;22.30
73685;BMP280;61985;51.070;14.064;2023-08-21T05:55:19;99296.63;;;22.37
73685;BMP280;61985;51.070;14.064;2023-08-21T05:57:45;99296.91;;;22.39
73685;BMP280;61985;51.070;14.064;2023-08-21T06:00:11;99296.41;;;22.47
73685;BMP280;61985;51.070;14.064;2023-08-21T06:02:37;99291.19;;;22.54
73685;BMP280;61985;51.070;14.064;2023-08-21T06:05:02;99291.97;;;22.66
73685;BMP280;61985;51.070;14.064;2023-08-21T06:07:28;99285.97;;;22.79
73685;BMP280;61985;51.070;14.064;2023-08-21T06:09:53;99291.22;;;22.71
73685;BMP280;61985;51.070;14.064;2023-08-21T06:12:19;99291.47;;;22.73
73685;BMP280;61985;51.070;14.064;2023-08-21T06:14:44;99292.72;;;22.72
73685;BMP280;61985;51.070;14.064;2023-08-21T06:17:09;99297.22;;;22.75
73685;BMP280;61985;51.070;14.064;2023-08-21T06:19:35;99284.00;;;22.96
73685;BMP280;61985;51.070;14.064;2023-08-21T06:22:02;99288.25;;;23.03
73685;BMP280;61985;51.070;14.064;2023-08-21T06:24:27;99282.75;;;23.03
73685;BMP280;61985;51.070;14.064;2023-08-21T06:26:52;99285.47;;;23.14
73685;BMP280;61985;51.070;14.064;2023-08-21T06:29:18;99282.72;;;23.14
73685;BMP280;61985;51.070;14.064;2023-08-21T06:31:46;99290.22;;;23.30
73685;BMP280;61985;51.070;14.064;2023-08-21T06:34:12;99286.22;;;23.43
73685;BMP280;61985;51.070;14.064;2023-08-21T06:36:37;99290.66;;;23.57
73685;BMP280;61985;51.070;14.064;2023-08-21T06:39:02;99290.63;;;23.68
73685;BMP280;61985;51.070;14.064;2023-08-21T06:41:28;99291.84;;;23.79
73685;BMP280;61985;51.070;14.064;2023-08-21T06:43:54;99300.91;;;23.73
73685;BMP280;61985;51.070;14.064;2023-08-21T06:46:19;99303.25;;;24.05
73685;BMP280;61985;51.070;14.064;2023-08-21T06:48:44;99287.69;;;24.19
73685;BMP280;61985;51.070;14.064;2023-08-21T06:51:10;99292.91;;;24.28
73685;BMP280;61985;51.070;14.064;2023-08-21T06:53:36;99290.53;;;24.49
73685;BMP280;61985;51.070;14.064;2023-08-21T06:56:02;99295.00;;;24.52
73685;BMP280;61985;51.070;14.064;2023-08-21T06:58:27;99296.19;;;24.62
73685;BMP280;61985;51.070;14.064;2023-08-21T07:00:55;99288.06;;;24.46
73685;BMP280;61985;51.070;14.064;2023-08-21T07:03:21;99283.78;;;24.45
73685;BMP280;61985;51.070;14.064;2023-08-21T07:05:53;99283.81;;;24.39
73685;BMP280;61985;51.070;14.064;2023-08-21T07:08:19;99287.34;;;24.34
73685;BMP280;61985;51.070;14.064;2023-08-21T07:10:45;99285.75;;;24.50
73685;BMP280;61985;51.070;14.064;2023-08-21T07:13:10;99291.22;;;24.55
73685;BMP280;61985;51.070;14.064;2023-08-21T07:15:35;99295.22;;;24.54
73685;BMP280;61985;51.070;14.064;2023-08-21T07:18:00;99296.84;;;24.38
73685;BMP280;61985;51.070;14.064;2023-08-21T07:20:26;99296.94;;;24.21
73685;BMP280;61985;51.070;14.064;2023-08-21T07:22:51;99289.13;;;24.31
73685;BMP280;61985;51.070;14.064;2023-08-21T07:25:17;99294.75;;;24.50
73685;BMP280;61985;51.070;14.064;2023-08-21T07:27:42;99290.59;;;24.74
73685;BMP280;61985;51.070;14.064;2023-08-21T07:30:08;99299.84;;;25.06
73685;BMP280;61985;51.070;14.064;2023-08-21T07:32:33;99300.75;;;25.15
73685;BMP280;61985;51.070;14.064;2023-08-21T07:34:59;99308.34;;;25.08
73685;BMP280;61985;51.070;14.064;2023-08-21T07:37:24;99310.97;;;24.95
73685;BMP280;61985;51.070;14.064;2023-08-21T07:39:49;99314.25;;;24.94
73685;BMP280;61985;51.070;14.064;2023-08-21T07:42:15;99308.50;;;24.92
73685;BMP280;61985;51.070;14.064;2023-08-21T07:44:40;99310.41;;;25.02
73685;BMP280;61985;51.070;14.064;2023-08-21T07:47:06;99309.09;;;25.09
73685;BMP280;61985;51.070;14.064;2023-08-21T07:49:32;99310.94;;;25.25
73685;BMP280;61985;51.070;14.064;2023-08-21T07:51:57;99305.78;;;25.41
73685;BMP280;61985;51.070;14.064;2023-08-21T07:54:23;99310.72;;;25.48
73685;BMP280;61985;51.070;14.064;2023-08-21T07:56:49;99310.16;;;25.55
73685;BMP280;61985;51.070;14.064;2023-08-21T07:59:15;99310.91;;;25.56
73685;BMP280;61985;51.070;14.064;2023-08-21T08:01:40;99311.22;;;25.71
73685;BMP280;61985;51.070;14.064;2023-08-21T08:04:05;99321.09;;;25.85
73685;BMP280;61985;51.070;14.064;2023-08-21T08:06:31;99320.34;;;25.85
73685;BMP280;61985;51.070;14.064;2023-08-21T08:08:56;99318.94;;;25.78
73685;BMP280;61985;51.070;14.064;2023-08-21T08:11:22;99318.31;;;25.85
73685;BMP280;61985;51.070;14.064;2023-08-21T08:13:48;99318.31;;;25.85
73685;BMP280;61985;51.070;14.064;2023-08-21T08:16:13;99325.28;;;25.92
73685;BMP280;61985;51.070;14.064;2023-08-21T08:18:38;99326.25;;;25.94
73685;BMP280;61985;51.070;14.064;2023-08-21T08:21:04;99326.78;;;26.12
73685;BMP280;61985;51.070;14.064;2023-08-21T08:23:29;99321.25;;;26.12
73685;BMP280;61985;51.070;14.064;2023-08-21T08:25:55;99319.56;;;26.09
73685;BMP280;61985;51.070;14.064;2023-08-21T08:28:20;99309.56;;;26.06
73685;BMP280;61985;51.070;14.064;2023-08-21T08:30:46;99315.88;;;26.00
73685;BMP280;61985;51.070;14.064;2023-08-21T08:33:11;99316.78;;;26.09
73685;BMP280;61985;51.070;14.064;2023-08-21T08:35:36;99318.66;;;26.19
73685;BMP280;61985;51.070;14.064;2023-08-21T08:38:02;99319.41;;;26.01
73685;BMP280;61985;51.070;14.064;2023-08-21T08:40:27;99320.34;;;26.04
73685;BMP280;61985;51.070;14.064;2023-08-21T08:42:53;99324.84;;;26.07
73685;BMP280;61985;51.070;14.064;2023-08-21T08:45:27;99326.78;;;26.12
73685;BMP280;61985;51.070;14.064;2023-08-21T08:47:53;99324.97;;;26.14
73685;BMP280;61985;51.070;14.064;2023-08-21T08:50:20;99319.84;;;26.24
73685;BMP280;61985;51.070;14.064;2023-08-21T08:52:45;99333.50;;;26.35
73685;BMP280;61985;51.070;14.064;2023-08-21T08:55:11;99327.66;;;26.39
73685;BMP280;61985;51.070;14.064;2023-08-21T08:57:36;99324.16;;;26.38
73685;BMP280;61985;51.070;14.064;2023-08-21T09:00:03;99322.28;;;26.47
73685;BMP280;61985;51.070;14.064;2023-08-21T09:02:29;99325.13;;;26.73
73685;BMP280;61985;51.070;14.064;2023-08-21T09:04:54;99325.78;;;26.79
73685;BMP280;61985;51.070;14.064;2023-08-21T09:07:20;99326.94;;;26.71
73685;BMP280;61985;51.070;14.064;2023-08-21T09:09:47;99326.94;;;26.71
73685;BMP280;61985;51.070;14.064;2023-08-21T09:12:14;99318.31;;;26.74
73685;BMP280;61985;51.070;14.064;2023-08-21T09:14:40;99315.16;;;26.83
73685;BMP280;61985;51.070;14.064;2023-08-21T09:17:06;99319.97;;;26.83
73685;BMP280;61985;51.070;14.064;2023-08-21T09:19:32;99317.72;;;26.81
73685;BMP280;61985;51.070;14.064;2023-08-21T09:21:57;99317.81;;;26.76
73685;BMP280;61985;51.070;14.064;2023-08-21T09:24:23;99311.31;;;26.73
73685;BMP280;61985;51.070;14.064;2023-08-21T09:26:50;99314.31;;;26.75
73685;BMP280;61985;51.070;14.064;2023-08-21T09:29:15;99315.69;;;26.82
73685;BMP280;61985;51.070;14.064;2023-08-21T09:31:44;99313.47;;;26.94
73685;BMP280;61985;51.070;14.064;2023-08-21T09:34:11;99317.97;;;27.23
73685;BMP280;61985;51.070;14.064;2023-08-21T09:36:38;99317.34;;;27.57
73685;BMP280;61985;51.070;14.064;2023-08-21T09:39:04;99307.72;;;27.85
73685;BMP280;61985;51.070;14.064;2023-08-21T09:41:31;99321.31;;;27.96
73685;BMP280;61985;51.070;14.064;2023-08-21T09:44:00;99317.28;;;27.84
73685;BMP280;61985;51.070;14.064;2023-08-21T09:46:27;99316.34;;;27.81
73685;BMP280;61985;51.070;14.064;2023-08-21T09:48:53;99326.38;;;27.71
73685;BMP280;61985;51.070;14.064;2023-08-21T09:51:19;99324.78;;;27.62
73685;BMP280;61985;51.070;14.064;2023-08-21T09:53:47;99322.88;;;27.57
73685;BMP280;61985;51.070;14.064;2023-08-21T09:56:13;99318.53;;;27.35
73685;BMP280;61985;51.070;14.064;2023-08-21T09:58:39;99318.19;;;27.25
73685;BMP280;61985;51.070;14.064;2023-08-21T10:01:06;99319.06;;;27.33
73685;BMP280;61985;51.070;14.064;2023-08-21T10:03:40;99312.97;;;27.48
73685;BMP280;61985;51.070;14.064;2023-08-21T10:06:08;99310.41;;;27.64
73685;BMP280;61985;51.070;14.064;2023-08-21T10:08:37;99312.88;;;27.54
73685;BMP280;61985;51.070;14.064;2023-08-21T10:11:06;99315.72;;;27.48
73685;BMP280;61985;51.070;14.064;2023-08-21T10:13:33;99308.13;;;27.41
73685;BMP280;61985;51.070;14.064;2023-08-21T10:15:59;99310.13;;;27.27
73685;BMP280;61985;51.070;14.064;2023-08-21T10:18:31;99312.44;;;27.23
73685;BMP280;61985;51.070;14.064;2023-08-21T10:21:10;99302.66;;;27.22
73685;BMP280;61985;51.070;14.064;2023-08-21T10:23:37;99307.66;;;27.37
73685;BMP280;61985;51.070;14.064;2023-08-21T10:26:06;99304.13;;;27.63
73685;BMP280;61985;51.070;14.064;2023-08-21T10:31:35;99303.75;;;28.27
73685;BMP280;61985;51.070;14.064;2023-08-21T10:34:06;99305.19;;;28.42
73685;BMP280;61985;51.070;14.064;2023-08-21T10:42:10;99304.00;;;28.16
73685;BMP280;61985;51.070;14.064;2023-08-21T10:47:22;99296.47;;;27.69
73685;BMP280;61985;51.070;14.064;2023-08-21T10:49:54;99308.91;;;27.63
73685;BMP280;61985;51.070;14.064;2023-08-21T10:52:24;99305.22;;;27.60
73685;BMP280;61985;51.070;14.064;2023-08-21T10:54:51;99305.94;;;27.61
73685;BMP280;61985;51.070;14.064;2023-08-21T10:57:17;99303.84;;;27.53
73685;BMP280;61985;51.070;14.064;2023-08-21T10:59:55;99309.56;;;27.55
73685;BMP280;61985;51.070;14.064;2023-08-21T11:02:22;99307.53;;;27.56
73685;BMP280;61985;51.070;14.064;2023-08-21T11:04:49;99303.59;;;27.65
73685;BMP280;61985;51.070;14.064;2023-08-21T11:07:14;99305.41;;;27.75
73685;BMP280;61985;51.070;14.064;2023-08-21T11:09:40;99297.41;;;27.72
73685;BMP280;61985;51.070;14.064;2023-08-21T11:12:12;99308.03;;;28.15
73685;BMP280;61985;51.070;14.064;2023-08-21T11:14:38;99296.78;;;28.55
73685;BMP280;61985;51.070;14.064;2023-08-21T11:17:04;99289.13;;;28.97
73685;BMP280;61985;51.070;14.064;2023-08-21T11:19:34;99288.69;;;28.86
73685;BMP280;61985;51.070;14.064;2023-08-21T11:22:00;99283.81;;;29.43
73685;BMP280;61985;51.070;14.064;2023-08-21T11:27:04;99281.56;;;29.94
73685;BMP280;61985;51.070;14.064;2023-08-21T11:29:36;99275.81;;;29.84
73685;BMP280;61985;51.070;14.064;2023-08-21T11:32:02;99290.66;;;29.94
73685;BMP280;61985;51.070;14.064;2023-08-21T11:34:28;99284.69;;;29.75
73685;BMP280;61985;51.070;14.064;2023-08-21T11:36:54;99285.47;;;29.39
73685;BMP280;61985;51.070;14.064;2023-08-21T11:39:19;99281.94;;;29.31
73685;BMP280;61985;51.070;14.064;2023-08-21T11:41:57;99291.00;;;29.03
73685;BMP280;61985;51.070;14.064;2023-08-21T11:44:23;99286.47;;;28.92
73685;BMP280;61985;51.070;14.064;2023-08-21T11:46:52;99279.41;;;29.12
73685;BMP280;61985;51.070;14.064;2023-08-21T11:49:18;99284.53;;;29.36
73685;BMP280;61985;51.070;14.064;2023-08-21T11:51:45;99278.59;;;29.32
73685;BMP280;61985;51.070;14.064;2023-08-21T11:54:11;99279.13;;;29.82
73685;BMP280;61985;51.070;14.064;2023-08-21T11:56:38;99273.63;;;30.13
73685;BMP280;61985;51.070;14.064;2023-08-21T11:59:04;99274.94;;;30.27
73685;BMP280;61985;51.070;14.064;2023-08-21T12:01:32;99272.50;;;30.70
73685;BMP280;61985;51.070;14.064;2023-08-21T12:03:58;99277.63;;;30.89
73685;BMP280;61985;51.070;14.064;2023-08-21T12:06:24;99267.47;;;31.31
73685;BMP280;61985;51.070;14.064;2023-08-21T12:08:50;99266.78;;;31.56
73685;BMP280;61985;51.070;14.064;2023-08-21T12:11:15;99270.38;;;32.07
73685;BMP280;61985;51.070;14.064;2023-08-21T12:13:41;99272.16;;;31.62
73685;BMP280;61985;51.070;14.064;2023-08-21T12:16:06;99270.09;;;31.29
73685;BMP280;61985;51.070;14.064;2023-08-21T12:18:31;99268.97;;;31.33
73685;BMP280;61985;51.070;14.064;2023-08-21T12:20:57;99275.41;;;31.75
73685;BMP280;61985;51.070;14.064;2023-08-21T12:23:22;99263.56;;;31.67
73685;BMP280;61985;51.070;14.064;2023-08-21T12:25:48;99269.00;;;31.90
73685;BMP280;61985;51.070;14.064;2023-08-21T12:28:13;99273.13;;;32.32
73685;BMP280;61985;51.070;14.064;2023-08-21T12:30:38;99276.19;;;32.61
73685;BMP280;61985;51.070;14.064;2023-08-21T12:33:04;99268.31;;;32.67
73685;BMP280;61985;51.070;14.064;2023-08-21T12:35:29;99270.66;;;32.18
73685;BMP280;61985;51.070;14.064;2023-08-21T12:37:58;99274.88;;;32.19
73685;BMP280;61985;51.070;14.064;2023-08-21T12:40:23;99276.59;;;31.65
73685;BMP280;61985;51.070;14.064;2023-08-21T12:42:49;99274.47;;;31.07
73685;BMP280;61985;51.070;14.064;2023-08-21T12:45:15;99268.59;;;30.73
73685;BMP280;61985;51.070;14.064;2023-08-21T12:47:41;99262.50;;;30.51
73685;BMP280;61985;51.070;14.064;2023-08-21T12:50:07;99265.19;;;31.05
73685;BMP280;61985;51.070;14.064;2023-08-21T12:52:32;99258.38;;;30.91
73685;BMP280;61985;51.070;14.064;2023-08-21T12:54:57;99258.31;;;31.46
73685;BMP280;61985;51.070;14.064;2023-08-21T12:57:24;99261.78;;;32.12
73685;BMP280;61985;51.070;14.064;2023-08-21T12:59:51;99256.34;;;32.74
73685;BMP280;61985;51.070;14.064;2023-08-21T13:02:16;99254.59;;;32.96
73685;BMP280;61985;51.070;14.064;2023-08-21T13:04:42;99259.34;;;33.47
73685;BMP280;61985;51.070;14.064;2023-08-21T13:07:07;99266.09;;;33.81
73685;BMP280;61985;51.070;14.064;2023-08-21T13:09:33;99257.66;;;33.71
73685;BMP280;61985;51.070;14.064;2023-08-21T13:11:58;99254.06;;;33.24
73685;BMP280;61985;51.070;14.064;2023-08-21T13:14:24;99256.44;;;33.28
73685;BMP280;61985;51.070;14.064;2023-08-21T13:16:49;99251.56;;;33.56
73685;BMP280;61985;51.070;14.064;2023-08-21T13:19:14;99257.47;;;33.33
73685;BMP280;61985;51.070;14.064;2023-08-21T13:21:40;99263.06;;;33.33
73685;BMP280;61985;51.070;14.064;2023-08-21T13:24:05;99262.88;;;33.04
73685;BMP280;61985;51.070;14.064;2023-08-21T13:26:32;99258.69;;;33.12
73685;BMP280;61985;51.070;14.064;2023-08-21T13:28:58;99261.66;;;33.24
73685;BMP280;61985;51.070;14.064;2023-08-21T13:31:23;99252.50;;;33.68
73685;BMP280;61985;51.070;14.064;2023-08-21T13:33:50;99255.13;;;33.29
73685;BMP280;61985;51.070;14.064;2023-08-21T13:36:16;99251.56;;;33.56
73685;BMP280;61985;51.070;14.064;2023-08-21T13:38:42;99254.94;;;33.54
73685;BMP280;61985;51.070;14.064;2023-08-21T13:41:08;99248.38;;;33.69
73685;BMP280;61985;51.070;14.064;2023-08-21T13:43:35;99240.69;;;33.06
73685;BMP280;61985;51.070;14.064;2023-08-21T13:46:01;99232.94;;;33.31
73685;BMP280;61985;51.070;14.064;2023-08-21T13:48:26;99232.69;;;33.46
73685;BMP280;61985;51.070;14.064;2023-08-21T13:50:52;99236.22;;;33.84
73685;BMP280;61985;51.070;14.064;2023-08-21T13:53:17;99237.78;;;34.14
73685;BMP280;61985;51.070;14.064;2023-08-21T13:55:42;99230.72;;;34.32
73685;BMP280;61985;51.070;14.064;2023-08-21T13:58:08;99225.53;;;34.19
73685;BMP280;61985;51.070;14.064;2023-08-21T14:00:33;99233.06;;;34.36
73685;BMP280;61985;51.070;14.064;2023-08-21T14:02:59;99232.03;;;34.31
73685;BMP280;61985;51.070;14.064;2023-08-21T14:05:24;99236.47;;;34.25
73685;BMP280;61985;51.070;14.064;2023-08-21T14:07:51;99234.47;;;33.79
73685;BMP280;61985;51.070;14.064;2023-08-21T14:10:17;99232.59;;;33.64
73685;BMP280;61985;51.070;14.064;2023-08-21T14:12:42;99229.91;;;33.46
73685;BMP280;61985;51.070;14.064;2023-08-21T14:15:08;99234.47;;;33.88
73685;BMP280;61985;51.070;14.064;2023-08-21T14:17:33;99235.38;;;33.91
73685;BMP280;61985;51.070;14.064;2023-08-21T14:19:59;99237.97;;;33.42
73685;BMP280;61985;51.070;14.064;2023-08-21T14:22:24;99231.88;;;33.27
73685;BMP280;61985;51.070;14.064;2023-08-21T14:24:49;99227.28;;;32.77
73685;BMP280;61985;51.070;14.064;2023-08-21T14:27:15;99224.47;;;32.08
73685;BMP280;61985;51.070;14.064;2023-08-21T14:29:42;99226.88;;;31.53
73685;BMP280;61985;51.070;14.064;2023-08-21T14:32:08;99219.78;;;31.35
73685;BMP280;61985;51.070;14.064;2023-08-21T14:34:33;99221.06;;;30.94
73685;BMP280;61985;51.070;14.064;2023-08-21T14:36:59;99215.75;;;30.57
73685;BMP280;61985;51.070;14.064;2023-08-21T14:39:25;99221.38;;;30.19
73685;BMP280;61985;51.070;14.064;2023-08-21T14:41:54;99220.81;;;30.21
73685;BMP280;61985;51.070;14.064;2023-08-21T14:44:21;99219.13;;;29.95
73685;BMP280;61985;51.070;14.064;2023-08-21T14:46:46;99223.78;;;29.92
73685;BMP280;61985;51.070;14.064;2023-08-21T14:49:12;99227.97;;;29.62
73685;BMP280;61985;51.070;14.064;2023-08-21T14:51:38;99223.75;;;29.69
73685;BMP280;61985;51.070;14.064;2023-08-21T14:54:04;99225.56;;;29.51
73685;BMP280;61985;51.070;14.064;2023-08-21T14:56:29;99221.69;;;29.54
73685;BMP280;61985;51.070;14.064;2023-08-21T14:58:55;99226.53;;;29.77
73685;BMP280;61985;51.070;14.064;2023-08-21T15:01:21;99221.31;;;29.73
73685;BMP280;61985;51.070;14.064;2023-08-21T15:03:46;99215.03;;;29.73
73685;BMP280;61985;51.070;14.064;2023-08-21T15:06:11;99225.81;;;30.30
73685;BMP280;61985;51.070;14.064;2023-08-21T15:08:38;99218.69;;;30.75
73685;BMP280;61985;51.070;14.064;2023-08-21T15:11:05;99219.53;;;31.00
73685;BMP280;61985;51.070;14.064;2023-08-21T15:13:30;99217.59;;;31.59
73685;BMP280;61985;51.070;14.064;2023-08-21T15:15:55;99213.03;;;31.71
73685;BMP280;61985;51.070;14.064;2023-08-21T15:18:21;99210.38;;;32.23
73685;BMP280;61985;51.070;14.064;2023-08-21T15:20:46;99211.56;;;32.99
73685;BMP280;61985;51.070;14.064;2023-08-21T15:23:12;99217.16;;;32.99
73685;BMP280;61985;51.070;14.064;2023-08-21T15:25:38;99204.09;;;32.84
73685;BMP280;61985;51.070;14.064;2023-08-21T15:28:04;99211.31;;;32.00
73685;BMP280;61985;51.070;14.064;2023-08-21T15:30:31;99208.31;;;31.23
73685;BMP280;61985;51.070;14.064;2023-08-21T15:32:56;99211.66;;;31.22
73685;BMP280;61985;51.070;14.064;2023-08-21T15:35:21;99217.41;;;31.24
73685;BMP280;61985;51.070;14.064;2023-08-21T15:37:47;99219.50;;;30.52
73685;BMP280;61985;51.070;14.064;2023-08-21T15:40:12;99221.84;;;31.27
73685;BMP280;61985;51.070;14.064;2023-08-21T15:42:38;99213.16;;;31.55
73685;BMP280;61985;51.070;14.064;2023-08-21T15:45:04;99217.13;;;31.04
73685;BMP280;61985;51.070;14.064;2023-08-21T15:47:41;99206.53;;;30.47
73685;BMP280;61985;51.070;14.064;2023-08-21T15:50:06;99219.88;;;30.26
73685;BMP280;61985;51.070;14.064;2023-08-21T15:52:33;99216.19;;;30.16
73685;BMP280;61985;51.070;14.064;2023-08-21T15:54:58;99208.53;;;29.70
73685;BMP280;61985;51.070;14.064;2023-08-21T15:57:23;99209.47;;;29.73
73685;BMP280;61985;51.070;14.064;2023-08-21T15:59:50;99207.91;;;29.41
73685;BMP280;61985;51.070;14.064;2023-08-21T16:02:15;99209.38;;;29.27
73685;BMP280;61985;51.070;14.064;2023-08-21T16:04:40;99209.38;;;29.34
73685;BMP280;61985;51.070;14.064;2023-08-21T16:07:06;99201.47;;;29.46
73685;BMP280;61985;51.070;14.064;2023-08-21T16:09:31;99201.66;;;29.48
73685;BMP280;61985;51.070;14.064;2023-08-21T16:11:57;99192.81;;;29.57
73685;BMP280;61985;51.070;14.064;2023-08-21T16:14:22;99205.03;;;29.62
73685;BMP280;61985;51.070;14.064;2023-08-21T16:16:47;99197.94;;;29.46
73685;BMP280;61985;51.070;14.064;2023-08-21T16:19:14;99194.25;;;29.43
73685;BMP280;61985;51.070;14.064;2023-08-21T16:21:39;99196.75;;;29.18
73685;BMP280;61985;51.070;14.064;2023-08-21T16:24:05;99201.38;;;29.15
73685;BMP280;61985;51.070;14.064;2023-08-21T16:26:32;99197.44;;;28.74
73685;BMP280;61985;51.070;14.064;2023-08-21T16:28:57;99202.84;;;28.80
73685;BMP280;61985;51.070;14.064;2023-08-21T16:31:23;99202.50;;;28.55
73685;BMP280;61985;51.070;14.064;2023-08-21T16:33:49;99198.94;;;28.47
73685;BMP280;61985;51.070;14.064;2023-08-21T16:36:14;99204.03;;;28.35
73685;BMP280;61985;51.070;14.064;2023-08-21T16:38:39;99203.06;;;28.12
73685;BMP280;61985;51.070;14.064;2023-08-21T16:41:05;99206.31;;;28.02
73685;BMP280;61985;51.070;14.064;2023-08-21T16:43:30;99202.75;;;27.94
73685;BMP280;61985;51.070;14.064;2023-08-21T16:45:56;99198.94;;;27.84
73685;BMP280;61985;51.070;14.064;2023-08-21T16:48:21;99196.84;;;27.77
73685;BMP280;61985;51.070;14.064;2023-08-21T16:50:49;99184.94;;;27.69
73685;BMP280;61985;51.070;14.064;2023-08-21T16:53:15;99194.66;;;27.62
73685;BMP280;61985;51.070;14.064;2023-08-21T16:55:41;99187.16;;;27.49
73685;BMP280;61985;51.070;14.064;2023-08-21T16:58:07;99195.16;;;27.40
73685;BMP280;61985;51.070;14.064;2023-08-21T17:00:32;99193.03;;;27.32
73685;BMP280;61985;51.070;14.064;2023-08-21T17:02:58;99190.06;;;27.30
73685;BMP280;61985;51.070;14.064;2023-08-21T17:05:25;99190.63;;;27.16
73685;BMP280;61985;51.070;14.064;2023-08-21T17:07:50;99194.34;;;27.05
73685;BMP280;61985;51.070;14.064;2023-08-21T17:10:28;99186.50;;;26.96
73685;BMP280;61985;51.070;14.064;2023-08-21T17:12:54;99189.31;;;26.90
73685;BMP280;61985;51.070;14.064;2023-08-21T17:15:19;99186.19;;;26.86
73685;BMP280;61985;51.070;14.064;2023-08-21T17:17:45;99189.13;;;26.88
73685;BMP280;61985;51.070;14.064;2023-08-21T17:20:11;99186.47;;;26.82
73685;BMP280;61985;51.070;14.064;2023-08-21T17:22:36;99183.72;;;26.82
73685;BMP280;61985;51.070;14.064;2023-08-21T17:25:01;99178.69;;;26.81
73685;BMP280;61985;51.070;14.064;2023-08-21T17:27:28;99178.94;;;26.83
73685;BMP280;61985;51.070;14.064;2023-08-21T17:29:53;99178.38;;;26.71
73685;BMP280;61985;51.070;14.064;2023-08-21T17:32:19;99183.38;;;26.46
73685;BMP280;61985;51.070;14.064;2023-08-21T17:34:44;99184.75;;;26.53
73685;BMP280;61985;51.070;14.064;2023-08-21T17:37:10;99185.91;;;26.57
73685;BMP280;61985;51.070;14.064;2023-08-21T17:39:36;99187.84;;;26.49
73685;BMP280;61985;51.070;14.064;2023-08-21T17:42:01;99180.28;;;26.50
73685;BMP280;61985;51.070;14.064;2023-08-21T17:44:28;99178.13;;;26.42
73685;BMP280;61985;51.070;14.064;2023-08-21T17:46:54;99179.63;;;26.11
73685;BMP280;61985;51.070;14.064;2023-08-21T17:49:19;99182.31;;;25.85
73685;BMP280;61985;51.070;14.064;2023-08-21T17:51:44;99178.72;;;25.71
73685;BMP280;61985;51.070;14.064;2023-08-21T17:54:10;99178.53;;;25.69
73685;BMP280;61985;51.070;14.064;2023-08-21T17:56:35;99179.97;;;25.70
73685;BMP280;61985;51.070;14.064;2023-08-21T17:59:01;99172.19;;;25.55
73685;BMP280;61985;51.070;14.064;2023-08-21T18:01:26;99176.63;;;25.39
73685;BMP280;61985;51.070;14.064;2023-08-21T18:03:52;99179.09;;;25.43
73685;BMP280;61985;51.070;14.064;2023-08-21T18:06:17;99175.91;;;25.14
73685;BMP280;61985;51.070;14.064;2023-08-21T18:08:45;99177.72;;;24.87
73685;BMP280;61985;51.070;14.064;2023-08-21T18:11:10;99182.03;;;24.82
73685;BMP280;61985;51.070;14.064;2023-08-21T18:13:38;99182.88;;;24.72
73685;BMP280;61985;51.070;14.064;2023-08-21T18:16:06;99191.94;;;24.67
73685;BMP280;61985;51.070;14.064;2023-08-21T18:18:32;99189.34;;;24.50
73685;BMP280;61985;51.070;14.064;2023-08-21T18:20:58;99191.19;;;24.66
73685;BMP280;61985;51.070;14.064;2023-08-21T18:23:24;99189.91;;;24.42
73685;BMP280;61985;51.070;14.064;2023-08-21T18:25:51;99182.34;;;24.13
73685;BMP280;61985;51.070;14.064;2023-08-21T18:28:23;99188.41;;;24.00
73685;BMP280;61985;51.070;14.064;2023-08-21T18:30:56;99187.84;;;24.13
73685;BMP280;61985;51.070;14.064;2023-08-21T18:33:22;99194.13;;;24.08
73685;BMP280;61985;51.070;14.064;2023-08-21T18:35:48;99199.41;;;24.06
73685;BMP280;61985;51.070;14.064;2023-08-21T18:38:14;99191.91;;;24.01
73685;BMP280;61985;51.070;14.064;2023-08-21T18:40:40;99193.13;;;24.05
73685;BMP280;61985;51.070;14.064;2023-08-21T18:43:06;99194.44;;;23.98
73685;BMP280;61985;51.070;14.064;2023-08-21T18:45:32;99203.94;;;23.97
73685;BMP280;61985;51.070;14.064;2023-08-21T18:47:57;99207.47;;;23.98
73685;BMP280;61985;51.070;14.064;2023-08-21T18:50:38;99219.56;;;23.78
73685;BMP280;61985;51.070;14.064;2023-08-21T18:53:06;99218.50;;;23.87
73685;BMP280;61985;51.070;14.064;2023-08-21T18:55:35;99219.78;;;23.86
73685;BMP280;61985;51.070;14.064;2023-08-21T18:58:00;99229.09;;;23.77
73685;BMP280;61985;51.070;14.064;2023-08-21T19:00:25;99230.28;;;23.82
73685;BMP280;61985;51.070;14.064;2023-08-21T19:02:51;99238.84;;;23.72
73685;BMP280;61985;51.070;14.064;2023-08-21T19:05:23;99227.63;;;23.65
73685;BMP280;61985;51.070;14.064;2023-08-21T19:07:49;99227.56;;;23.76
73685;BMP280;61985;51.070;14.064;2023-08-21T19:10:15;99237.09;;;23.75
73685;BMP280;61985;51.070;14.064;2023-08-21T19:12:41;99235.59;;;23.68
73685;BMP280;61985;51.070;14.064;2023-08-21T19:15:07;99240.38;;;23.73
73685;BMP280;61985;51.070;14.064;2023-08-21T19:17:33;99233.56;;;23.74
73685;BMP280;61985;51.070;14.064;2023-08-21T19:20:01;99237.13;;;23.69
73685;BMP280;61985;51.070;14.064;2023-08-21T19:22:29;99243.84;;;23.74
73685;BMP280;61985;51.070;14.064;2023-08-21T19:24:54;99241.41;;;23.59
73685;BMP280;61985;51.070;14.064;2023-08-21T19:27:20;99241.41;;;23.59
73685;BMP280;61985;51.070;14.064;2023-08-21T19:29:45;99241.44;;;23.53
73685;BMP280;61985;51.070;14.064;2023-08-21T19:32:11;99242.22;;;23.43
73685;BMP280;61985;51.070;14.064;2023-08-21T19:34:37;99242.72;;;23.47
73685;BMP280;61985;51.070;14.064;2023-08-21T19:37:03;99233.22;;;23.31